sensor_id;sensor_type;location;lat;lon;timestamp;P1;durP1;ratioP1;P2;durP2;ratioP2
18857;SDS011;9558;50.178;8.370;2023-07-29T00:01:53;8.93;;;4.05;;
18857;SDS011;9558;50.178;8.370;2023-07-29T00:04:41;9.88;;;3.85;;
18857;SDS011;9558;50.178;8.370;2023-07-29T00:07:27;8.07;;;4.13;;
18857;SDS011;9558;50.178;8.370;2023-07-29T00:10:14;7.22;;;4.10;;
18857;SDS011;9558;50.178;8.370;2023-07-29T00:13:01;7.55;;;3.53;;
18857;SDS011;9558;50.178;8.370;2023-07-29T00:15:48;7.70;;;3.30;;
18857;SDS011;9558;50.178;8.370;2023-07-29T00:18:34;7.93;;;4.03;;
18857;SDS011;9558;50.178;8.370;2023-07-29T00:21:22;5.85;;;3.67;;
18857;SDS011;9558;50.178;8.370;2023-07-29T00:24:09;5.35;;;3.42;;
18857;SDS011;9558;50.178;8.370;2023-07-29T00:26:56;7.15;;;3.90;;
18857;SDS011;9558;50.178;8.370;2023-07-29T00:29:43;6.40;;;3.97;;
18857;SDS011;9558;50.178;8.370;2023-07-29T00:32:29;8.52;;;2.97;;
18857;SDS011;9558;50.178;8.370;2023-07-29T00:35:16;5.82;;;3.33;;
18857;SDS011;9558;50.178;8.370;2023-07-29T00:38:04;4.45;;;2.90;;
18857;SDS011;9558;50.178;8.370;2023-07-29T00:40:51;4.32;;;3.33;;
18857;SDS011;9558;50.178;8.370;2023-07-29T00:43:38;4.25;;;2.95;;
18857;SDS011;9558;50.178;8.370;2023-07-29T00:46:25;4.40;;;2.78;;
18857;SDS011;9558;50.178;8.370;2023-07-29T00:49:14;4.80;;;3.10;;
18857;SDS011;9558;50.178;8.370;2023-07-29T00:52:01;6.30;;;4.00;;
18857;SDS011;9558;50.178;8.370;2023-07-29T00:54:49;7.45;;;4.32;;
18857;SDS011;9558;50.178;8.370;2023-07-29T00:57:36;6.35;;;4.15;;
18857;SDS011;9558;50.178;8.370;2023-07-29T01:00:23;12.48;;;4.38;;
18857;SDS011;9558;50.178;8.370;2023-07-29T01:03:10;10.30;;;4.43;;
18857;SDS011;9558;50.178;8.370;2023-07-29T01:06:00;6.60;;;3.65;;
18857;SDS011;9558;50.178;8.370;2023-07-29T01:08:58;5.70;;;3.83;;
18857;SDS011;9558;50.178;8.370;2023-07-29T01:11:51;4.20;;;3.28;;
18857;SDS011;9558;50.178;8.370;2023-07-29T01:14:50;4.60;;;3.15;;
18857;SDS011;9558;50.178;8.370;2023-07-29T01:17:46;5.47;;;3.15;;
18857;SDS011;9558;50.178;8.370;2023-07-29T01:20:35;5.55;;;2.83;;
18857;SDS011;9558;50.178;8.370;2023-07-29T01:23:26;3.53;;;2.35;;
18857;SDS011;9558;50.178;8.370;2023-07-29T01:26:15;5.45;;;2.83;;
18857;SDS011;9558;50.178;8.370;2023-07-29T01:29:02;3.97;;;2.53;;
18857;SDS011;9558;50.178;8.370;2023-07-29T01:31:49;3.28;;;2.30;;
18857;SDS011;9558;50.178;8.370;2023-07-29T01:34:43;3.30;;;2.13;;
18857;SDS011;9558;50.178;8.370;2023-07-29T01:37:35;2.72;;;2.00;;
18857;SDS011;9558;50.178;8.370;2023-07-29T01:40:26;3.58;;;2.03;;
18857;SDS011;9558;50.178;8.370;2023-07-29T01:43:14;3.65;;;2.33;;
18857;SDS011;9558;50.178;8.370;2023-07-29T01:46:01;7.72;;;2.00;;
18857;SDS011;9558;50.178;8.370;2023-07-29T01:48:47;5.88;;;2.05;;
18857;SDS011;9558;50.178;8.370;2023-07-29T01:51:34;3.88;;;2.08;;
18857;SDS011;9558;50.178;8.370;2023-07-29T01:54:21;2.15;;;1.90;;
18857;SDS011;9558;50.178;8.370;2023-07-29T01:57:09;3.28;;;2.35;;
18857;SDS011;9558;50.178;8.370;2023-07-29T01:59:56;3.45;;;2.50;;
18857;SDS011;9558;50.178;8.370;2023-07-29T02:02:43;5.63;;;2.95;;
18857;SDS011;9558;50.178;8.370;2023-07-29T02:05:30;4.68;;;3.15;;
18857;SDS011;9558;50.178;8.370;2023-07-29T02:08:16;4.72;;;3.17;;
18857;SDS011;9558;50.178;8.370;2023-07-29T02:11:03;5.93;;;2.45;;
18857;SDS011;9558;50.178;8.370;2023-07-29T02:13:51;5.05;;;3.00;;
18857;SDS011;9558;50.178;8.370;2023-07-29T02:16:38;3.75;;;2.72;;
18857;SDS011;9558;50.178;8.370;2023-07-29T02:19:25;6.70;;;3.42;;
18857;SDS011;9558;50.178;8.370;2023-07-29T02:22:13;5.97;;;3.33;;
18857;SDS011;9558;50.178;8.370;2023-07-29T02:25:00;10.52;;;4.05;;
18857;SDS011;9558;50.178;8.370;2023-07-29T02:27:47;6.03;;;3.58;;
18857;SDS011;9558;50.178;8.370;2023-07-29T02:30:36;6.88;;;3.88;;
18857;SDS011;9558;50.178;8.370;2023-07-29T02:33:23;7.30;;;4.20;;
18857;SDS011;9558;50.178;8.370;2023-07-29T02:36:10;7.72;;;4.45;;
18857;SDS011;9558;50.178;8.370;2023-07-29T02:38:58;9.10;;;3.78;;
18857;SDS011;9558;50.178;8.370;2023-07-29T02:41:45;8.32;;;4.32;;
18857;SDS011;9558;50.178;8.370;2023-07-29T02:44:32;7.10;;;4.40;;
18857;SDS011;9558;50.178;8.370;2023-07-29T02:47:20;11.63;;;4.35;;
18857;SDS011;9558;50.178;8.370;2023-07-29T02:50:07;8.48;;;4.45;;
18857;SDS011;9558;50.178;8.370;2023-07-29T02:52:54;7.45;;;4.28;;
18857;SDS011;9558;50.178;8.370;2023-07-29T02:55:41;7.60;;;4.38;;
18857;SDS011;9558;50.178;8.370;2023-07-29T02:58:28;10.73;;;4.65;;
18857;SDS011;9558;50.178;8.370;2023-07-29T03:01:15;7.63;;;4.65;;
18857;SDS011;9558;50.178;8.370;2023-07-29T03:04:03;7.10;;;4.25;;
18857;SDS011;9558;50.178;8.370;2023-07-29T03:06:50;8.57;;;4.70;;
18857;SDS011;9558;50.178;8.370;2023-07-29T03:09:36;7.72;;;4.25;;
18857;SDS011;9558;50.178;8.370;2023-07-29T03:12:23;6.78;;;4.15;;
18857;SDS011;9558;50.178;8.370;2023-07-29T03:15:10;7.57;;;4.57;;
18857;SDS011;9558;50.178;8.370;2023-07-29T03:17:58;7.45;;;4.18;;
18857;SDS011;9558;50.178;8.370;2023-07-29T03:20:46;8.85;;;4.38;;
18857;SDS011;9558;50.178;8.370;2023-07-29T03:23:35;9.73;;;4.32;;
18857;SDS011;9558;50.178;8.370;2023-07-29T03:26:22;8.52;;;4.97;;
18857;SDS011;9558;50.178;8.370;2023-07-29T03:29:09;8.88;;;5.47;;
18857;SDS011;9558;50.178;8.370;2023-07-29T03:31:57;10.63;;;4.93;;
18857;SDS011;9558;50.178;8.370;2023-07-29T03:34:43;8.23;;;5.10;;
18857;SDS011;9558;50.178;8.370;2023-07-29T03:37:31;9.18;;;5.25;;
18857;SDS011;9558;50.178;8.370;2023-07-29T03:40:18;7.63;;;4.70;;
18857;SDS011;9558;50.178;8.370;2023-07-29T03:43:05;9.43;;;5.07;;
18857;SDS011;9558;50.178;8.370;2023-07-29T03:45:52;11.10;;;5.10;;
18857;SDS011;9558;50.178;8.370;2023-07-29T03:48:39;9.73;;;4.55;;
18857;SDS011;9558;50.178;8.370;2023-07-29T03:51:26;8.88;;;4.82;;
18857;SDS011;9558;50.178;8.370;2023-07-29T03:54:14;9.27;;;5.15;;
18857;SDS011;9558;50.178;8.370;2023-07-29T03:57:00;12.82;;;5.07;;
18857;SDS011;9558;50.178;8.370;2023-07-29T03:59:47;10.57;;;4.80;;
18857;SDS011;9558;50.178;8.370;2023-07-29T04:02:34;9.15;;;5.07;;
18857;SDS011;9558;50.178;8.370;2023-07-29T04:05:22;10.80;;;5.30;;
18857;SDS011;9558;50.178;8.370;2023-07-29T04:08:09;10.63;;;5.40;;
18857;SDS011;9558;50.178;8.370;2023-07-29T04:10:57;8.98;;;4.93;;
18857;SDS011;9558;50.178;8.370;2023-07-29T04:13:44;10.90;;;5.00;;
18857;SDS011;9558;50.178;8.370;2023-07-29T04:16:31;11.30;;;5.90;;
18857;SDS011;9558;50.178;8.370;2023-07-29T04:19:18;16.15;;;5.82;;
18857;SDS011;9558;50.178;8.370;2023-07-29T04:22:04;9.07;;;4.85;;
18857;SDS011;9558;50.178;8.370;2023-07-29T04:24:51;10.93;;;5.22;;
18857;SDS011;9558;50.178;8.370;2023-07-29T04:27:40;13.10;;;5.60;;
18857;SDS011;9558;50.178;8.370;2023-07-29T04:30:27;9.50;;;4.75;;
18857;SDS011;9558;50.178;8.370;2023-07-29T04:33:13;9.32;;;5.03;;
18857;SDS011;9558;50.178;8.370;2023-07-29T04:36:00;9.15;;;4.57;;
18857;SDS011;9558;50.178;8.370;2023-07-29T04:38:47;7.47;;;4.13;;
18857;SDS011;9558;50.178;8.370;2023-07-29T04:41:34;7.82;;;4.53;;
18857;SDS011;9558;50.178;8.370;2023-07-29T04:44:22;7.47;;;4.05;;
18857;SDS011;9558;50.178;8.370;2023-07-29T04:47:09;7.32;;;3.45;;
18857;SDS011;9558;50.178;8.370;2023-07-29T04:49:56;7.03;;;3.60;;
18857;SDS011;9558;50.178;8.370;2023-07-29T04:52:42;6.70;;;3.55;;
18857;SDS011;9558;50.178;8.370;2023-07-29T04:55:29;6.80;;;3.30;;
18857;SDS011;9558;50.178;8.370;2023-07-29T04:58:16;6.38;;;3.13;;
18857;SDS011;9558;50.178;8.370;2023-07-29T05:01:04;4.93;;;3.55;;
18857;SDS011;9558;50.178;8.370;2023-07-29T05:03:52;8.32;;;3.25;;
18857;SDS011;9558;50.178;8.370;2023-07-29T05:06:39;5.50;;;3.60;;
18857;SDS011;9558;50.178;8.370;2023-07-29T05:09:26;8.65;;;3.10;;
18857;SDS011;9558;50.178;8.370;2023-07-29T05:12:13;5.95;;;3.35;;
18857;SDS011;9558;50.178;8.370;2023-07-29T05:14:59;6.15;;;3.60;;
18857;SDS011;9558;50.178;8.370;2023-07-29T05:17:48;6.35;;;3.15;;
18857;SDS011;9558;50.178;8.370;2023-07-29T05:20:34;6.47;;;3.92;;
18857;SDS011;9558;50.178;8.370;2023-07-29T05:23:21;6.95;;;4.25;;
18857;SDS011;9558;50.178;8.370;2023-07-29T05:26:08;8.07;;;3.63;;
18857;SDS011;9558;50.178;8.370;2023-07-29T05:28:55;5.63;;;3.33;;
18857;SDS011;9558;50.178;8.370;2023-07-29T05:31:41;8.02;;;3.53;;
18857;SDS011;9558;50.178;8.370;2023-07-29T05:34:29;4.82;;;3.20;;
18857;SDS011;9558;50.178;8.370;2023-07-29T05:37:16;5.15;;;3.17;;
18857;SDS011;9558;50.178;8.370;2023-07-29T05:40:03;8.40;;;3.95;;
18857;SDS011;9558;50.178;8.370;2023-07-29T05:42:51;3.58;;;2.75;;
18857;SDS011;9558;50.178;8.370;2023-07-29T05:45:37;3.67;;;2.70;;
18857;SDS011;9558;50.178;8.370;2023-07-29T05:48:24;6.47;;;3.70;;
18857;SDS011;9558;50.178;8.370;2023-07-29T05:51:12;4.72;;;3.08;;
18857;SDS011;9558;50.178;8.370;2023-07-29T05:53:59;3.72;;;2.88;;
18857;SDS011;9558;50.178;8.370;2023-07-29T05:56:46;3.70;;;2.85;;
18857;SDS011;9558;50.178;8.370;2023-07-29T05:59:32;6.30;;;2.92;;
18857;SDS011;9558;50.178;8.370;2023-07-29T06:02:19;4.70;;;2.70;;
18857;SDS011;9558;50.178;8.370;2023-07-29T06:05:06;5.60;;;3.00;;
18857;SDS011;9558;50.178;8.370;2023-07-29T06:07:54;5.47;;;3.40;;
18857;SDS011;9558;50.178;8.370;2023-07-29T06:10:41;6.20;;;3.45;;
18857;SDS011;9558;50.178;8.370;2023-07-29T06:13:28;4.03;;;3.03;;
18857;SDS011;9558;50.178;8.370;2023-07-29T06:16:15;5.22;;;3.15;;
18857;SDS011;9558;50.178;8.370;2023-07-29T06:19:02;7.10;;;3.00;;
18857;SDS011;9558;50.178;8.370;2023-07-29T06:21:49;7.25;;;3.17;;
18857;SDS011;9558;50.178;8.370;2023-07-29T06:24:37;4.95;;;2.83;;
18857;SDS011;9558;50.178;8.370;2023-07-29T06:27:24;4.35;;;3.33;;
18857;SDS011;9558;50.178;8.370;2023-07-29T06:30:11;4.53;;;3.00;;
18857;SDS011;9558;50.178;8.370;2023-07-29T06:32:57;4.75;;;2.72;;
18857;SDS011;9558;50.178;8.370;2023-07-29T06:35:44;4.80;;;3.20;;
18857;SDS011;9558;50.178;8.370;2023-07-29T06:38:31;4.50;;;3.10;;
18857;SDS011;9558;50.178;8.370;2023-07-29T06:41:19;4.30;;;2.97;;
18857;SDS011;9558;50.178;8.370;2023-07-29T06:44:06;5.10;;;3.20;;
18857;SDS011;9558;50.178;8.370;2023-07-29T06:46:52;5.32;;;3.13;;
18857;SDS011;9558;50.178;8.370;2023-07-29T06:49:39;4.20;;;3.20;;
18857;SDS011;9558;50.178;8.370;2023-07-29T06:52:26;6.40;;;2.90;;
18857;SDS011;9558;50.178;8.370;2023-07-29T06:55:13;7.03;;;3.00;;
18857;SDS011;9558;50.178;8.370;2023-07-29T06:58:01;3.15;;;2.63;;
18857;SDS011;9558;50.178;8.370;2023-07-29T07:00:48;3.60;;;2.78;;
18857;SDS011;9558;50.178;8.370;2023-07-29T07:03:35;4.72;;;3.00;;
18857;SDS011;9558;50.178;8.370;2023-07-29T07:06:21;7.07;;;3.05;;
18857;SDS011;9558;50.178;8.370;2023-07-29T07:09:09;5.28;;;3.60;;
18857;SDS011;9558;50.178;8.370;2023-07-29T07:11:56;5.90;;;3.35;;
18857;SDS011;9558;50.178;8.370;2023-07-29T07:14:44;5.25;;;3.17;;
18857;SDS011;9558;50.178;8.370;2023-07-29T07:17:31;6.00;;;3.55;;
18857;SDS011;9558;50.178;8.370;2023-07-29T07:20:18;7.32;;;3.70;;
18857;SDS011;9558;50.178;8.370;2023-07-29T07:23:05;3.20;;;2.70;;
18857;SDS011;9558;50.178;8.370;2023-07-29T07:25:56;3.90;;;2.63;;
18857;SDS011;9558;50.178;8.370;2023-07-29T07:28:42;9.75;;;2.67;;
18857;SDS011;9558;50.178;8.370;2023-07-29T07:31:32;3.67;;;2.75;;
18857;SDS011;9558;50.178;8.370;2023-07-29T07:34:20;4.45;;;2.50;;
18857;SDS011;9558;50.178;8.370;2023-07-29T07:37:07;2.92;;;2.40;;
18857;SDS011;9558;50.178;8.370;2023-07-29T07:39:54;6.68;;;2.53;;
18857;SDS011;9558;50.178;8.370;2023-07-29T07:42:41;4.45;;;2.58;;
18857;SDS011;9558;50.178;8.370;2023-07-29T07:45:28;4.88;;;2.60;;
18857;SDS011;9558;50.178;8.370;2023-07-29T07:48:16;2.30;;;1.92;;
18857;SDS011;9558;50.178;8.370;2023-07-29T07:51:09;2.53;;;1.80;;
18857;SDS011;9558;50.178;8.370;2023-07-29T07:53:56;2.95;;;2.05;;
18857;SDS011;9558;50.178;8.370;2023-07-29T07:56:43;2.78;;;2.20;;
18857;SDS011;9558;50.178;8.370;2023-07-29T07:59:30;1.95;;;1.75;;
18857;SDS011;9558;50.178;8.370;2023-07-29T08:02:17;2.28;;;1.80;;
18857;SDS011;9558;50.178;8.370;2023-07-29T08:05:06;2.10;;;1.90;;
18857;SDS011;9558;50.178;8.370;2023-07-29T08:07:53;1.55;;;1.45;;
18857;SDS011;9558;50.178;8.370;2023-07-29T08:10:40;1.95;;;1.77;;
18857;SDS011;9558;50.178;8.370;2023-07-29T08:13:28;1.45;;;1.35;;
18857;SDS011;9558;50.178;8.370;2023-07-29T08:16:14;1.60;;;1.35;;
18857;SDS011;9558;50.178;8.370;2023-07-29T08:19:01;2.13;;;1.60;;
18857;SDS011;9558;50.178;8.370;2023-07-29T08:21:53;1.83;;;1.70;;
18857;SDS011;9558;50.178;8.370;2023-07-29T08:24:40;4.20;;;1.55;;
18857;SDS011;9558;50.178;8.370;2023-07-29T08:27:27;2.13;;;1.55;;
18857;SDS011;9558;50.178;8.370;2023-07-29T08:30:14;1.60;;;1.50;;
18857;SDS011;9558;50.178;8.370;2023-07-29T08:33:01;1.48;;;1.38;;
18857;SDS011;9558;50.178;8.370;2023-07-29T08:35:48;1.73;;;1.60;;
18857;SDS011;9558;50.178;8.370;2023-07-29T08:38:36;1.40;;;1.30;;
18857;SDS011;9558;50.178;8.370;2023-07-29T08:41:24;1.33;;;1.23;;
18857;SDS011;9558;50.178;8.370;2023-07-29T08:44:16;1.65;;;1.52;;
18857;SDS011;9558;50.178;8.370;2023-07-29T08:47:07;1.35;;;1.25;;
18857;SDS011;9558;50.178;8.370;2023-07-29T08:49:54;3.88;;;1.40;;
18857;SDS011;9558;50.178;8.370;2023-07-29T08:52:41;1.50;;;1.38;;
18857;SDS011;9558;50.178;8.370;2023-07-29T08:55:31;2.33;;;1.55;;
18857;SDS011;9558;50.178;8.370;2023-07-29T08:58:18;2.78;;;1.60;;
18857;SDS011;9558;50.178;8.370;2023-07-29T09:01:06;1.38;;;1.20;;
18857;SDS011;9558;50.178;8.370;2023-07-29T09:03:53;1.50;;;1.05;;
18857;SDS011;9558;50.178;8.370;2023-07-29T09:06:40;1.65;;;1.20;;
18857;SDS011;9558;50.178;8.370;2023-07-29T09:09:30;1.10;;;1.00;;
18857;SDS011;9558;50.178;8.370;2023-07-29T09:12:19;1.08;;;1.02;;
18857;SDS011;9558;50.178;8.370;2023-07-29T09:15:06;1.90;;;0.90;;
18857;SDS011;9558;50.178;8.370;2023-07-29T09:17:55;1.30;;;1.20;;
18857;SDS011;9558;50.178;8.370;2023-07-29T09:20:42;0.65;;;0.65;;
18857;SDS011;9558;50.178;8.370;2023-07-29T09:23:37;1.00;;;0.80;;
18857;SDS011;9558;50.178;8.370;2023-07-29T09:26:25;1.10;;;0.70;;
18857;SDS011;9558;50.178;8.370;2023-07-29T09:29:14;1.98;;;0.90;;
18857;SDS011;9558;50.178;8.370;2023-07-29T09:35:09;2.50;;;0.80;;
18857;SDS011;9558;50.178;8.370;2023-07-29T09:37:56;0.73;;;0.68;;
18857;SDS011;9558;50.178;8.370;2023-07-29T09:40:43;1.38;;;0.75;;
18857;SDS011;9558;50.178;8.370;2023-07-29T09:43:30;1.13;;;0.80;;
18857;SDS011;9558;50.178;8.370;2023-07-29T09:46:21;0.80;;;0.80;;
18857;SDS011;9558;50.178;8.370;2023-07-29T09:49:09;2.40;;;0.90;;
18857;SDS011;9558;50.178;8.370;2023-07-29T09:51:56;1.13;;;0.70;;
18857;SDS011;9558;50.178;8.370;2023-07-29T09:54:44;1.30;;;0.80;;
18857;SDS011;9558;50.178;8.370;2023-07-29T09:57:32;0.75;;;0.73;;
18857;SDS011;9558;50.178;8.370;2023-07-29T10:00:19;1.27;;;0.98;;
18857;SDS011;9558;50.178;8.370;2023-07-29T10:03:07;0.80;;;0.80;;
18857;SDS011;9558;50.178;8.370;2023-07-29T10:05:54;3.90;;;1.10;;
18857;SDS011;9558;50.178;8.370;2023-07-29T10:08:42;0.75;;;0.75;;
18857;SDS011;9558;50.178;8.370;2023-07-29T10:11:29;0.70;;;0.70;;
18857;SDS011;9558;50.178;8.370;2023-07-29T10:14:17;1.02;;;0.75;;
18857;SDS011;9558;50.178;8.370;2023-07-29T10:17:04;0.85;;;0.70;;
18857;SDS011;9558;50.178;8.370;2023-07-29T10:19:53;0.75;;;0.75;;
18857;SDS011;9558;50.178;8.370;2023-07-29T10:22:43;2.47;;;0.73;;
18857;SDS011;9558;50.178;8.370;2023-07-29T10:25:33;2.13;;;0.90;;
18857;SDS011;9558;50.178;8.370;2023-07-29T10:28:25;1.58;;;0.80;;
18857;SDS011;9558;50.178;8.370;2023-07-29T10:31:12;0.90;;;0.90;;
18857;SDS011;9558;50.178;8.370;2023-07-29T10:33:59;2.58;;;0.90;;
18857;SDS011;9558;50.178;8.370;2023-07-29T10:36:48;1.65;;;0.90;;
18857;SDS011;9558;50.178;8.370;2023-07-29T10:39:38;1.42;;;0.90;;
18857;SDS011;9558;50.178;8.370;2023-07-29T10:42:25;0.82;;;0.82;;
18857;SDS011;9558;50.178;8.370;2023-07-29T10:45:19;0.70;;;0.70;;
18857;SDS011;9558;50.178;8.370;2023-07-29T10:48:09;0.95;;;0.80;;
18857;SDS011;9558;50.178;8.370;2023-07-29T10:54:16;1.10;;;0.85;;
18857;SDS011;9558;50.178;8.370;2023-07-29T10:57:03;0.70;;;0.70;;
18857;SDS011;9558;50.178;8.370;2023-07-29T10:59:53;1.23;;;0.70;;
18857;SDS011;9558;50.178;8.370;2023-07-29T11:02:41;0.88;;;0.82;;
18857;SDS011;9558;50.178;8.370;2023-07-29T11:05:41;2.17;;;0.63;;
18857;SDS011;9558;50.178;8.370;2023-07-29T11:08:29;1.48;;;0.75;;
18857;SDS011;9558;50.178;8.370;2023-07-29T11:11:18;1.48;;;1.00;;
18857;SDS011;9558;50.178;8.370;2023-07-29T11:14:05;1.25;;;0.80;;
18857;SDS011;9558;50.178;8.370;2023-07-29T11:16:53;0.80;;;0.70;;
18857;SDS011;9558;50.178;8.370;2023-07-29T11:19:40;0.82;;;0.68;;
18857;SDS011;9558;50.178;8.370;2023-07-29T11:22:27;1.15;;;0.65;;
18857;SDS011;9558;50.178;8.370;2023-07-29T11:25:15;0.70;;;0.65;;
18857;SDS011;9558;50.178;8.370;2023-07-29T11:28:04;0.90;;;0.60;;
18857;SDS011;9558;50.178;8.370;2023-07-29T11:30:51;1.75;;;0.70;;
18857;SDS011;9558;50.178;8.370;2023-07-29T11:33:38;0.60;;;0.60;;
18857;SDS011;9558;50.178;8.370;2023-07-29T11:36:25;0.50;;;0.50;;
18857;SDS011;9558;50.178;8.370;2023-07-29T11:39:12;4.80;;;0.93;;
18857;SDS011;9558;50.178;8.370;2023-07-29T11:41:59;2.97;;;0.85;;
18857;SDS011;9558;50.178;8.370;2023-07-29T11:44:47;1.42;;;0.88;;
18857;SDS011;9558;50.178;8.370;2023-07-29T11:47:34;5.28;;;1.17;;
18857;SDS011;9558;50.178;8.370;2023-07-29T11:50:22;1.95;;;0.80;;
18857;SDS011;9558;50.178;8.370;2023-07-29T11:53:09;4.03;;;0.90;;
18857;SDS011;9558;50.178;8.370;2023-07-29T11:55:57;1.23;;;0.68;;
18857;SDS011;9558;50.178;8.370;2023-07-29T11:58:45;3.20;;;0.88;;
18857;SDS011;9558;50.178;8.370;2023-07-29T12:01:33;2.03;;;0.98;;
18857;SDS011;9558;50.178;8.370;2023-07-29T12:04:20;1.98;;;1.00;;
18857;SDS011;9558;50.178;8.370;2023-07-29T12:07:07;0.90;;;0.80;;
18857;SDS011;9558;50.178;8.370;2023-07-29T12:09:54;4.15;;;1.17;;
18857;SDS011;9558;50.178;8.370;2023-07-29T12:12:44;0.80;;;0.80;;
18857;SDS011;9558;50.178;8.370;2023-07-29T12:15:32;1.45;;;1.00;;
18857;SDS011;9558;50.178;8.370;2023-07-29T12:18:20;2.45;;;0.70;;
18857;SDS011;9558;50.178;8.370;2023-07-29T12:21:17;0.70;;;0.70;;
18857;SDS011;9558;50.178;8.370;2023-07-29T12:24:05;0.90;;;0.77;;
18857;SDS011;9558;50.178;8.370;2023-07-29T12:26:52;1.45;;;0.90;;
18857;SDS011;9558;50.178;8.370;2023-07-29T12:29:40;1.38;;;0.95;;
18857;SDS011;9558;50.178;8.370;2023-07-29T12:32:27;2.42;;;0.70;;
18857;SDS011;9558;50.178;8.370;2023-07-29T12:35:15;1.00;;;0.70;;
18857;SDS011;9558;50.178;8.370;2023-07-29T12:38:02;1.10;;;0.90;;
18857;SDS011;9558;50.178;8.370;2023-07-29T12:40:49;0.70;;;0.70;;
18857;SDS011;9558;50.178;8.370;2023-07-29T12:43:36;2.33;;;0.80;;
18857;SDS011;9558;50.178;8.370;2023-07-29T12:46:28;0.80;;;0.73;;
18857;SDS011;9558;50.178;8.370;2023-07-29T12:49:15;0.98;;;0.85;;
18857;SDS011;9558;50.178;8.370;2023-07-29T12:52:04;1.60;;;0.93;;
18857;SDS011;9558;50.178;8.370;2023-07-29T12:54:52;1.30;;;0.80;;
18857;SDS011;9558;50.178;8.370;2023-07-29T12:57:39;1.48;;;1.05;;
18857;SDS011;9558;50.178;8.370;2023-07-29T13:00:27;1.10;;;0.98;;
18857;SDS011;9558;50.178;8.370;2023-07-29T13:03:14;1.00;;;0.80;;
18857;SDS011;9558;50.178;8.370;2023-07-29T13:06:01;4.55;;;1.10;;
18857;SDS011;9558;50.178;8.370;2023-07-29T13:08:49;1.45;;;0.98;;
18857;SDS011;9558;50.178;8.370;2023-07-29T13:11:35;1.55;;;0.77;;
18857;SDS011;9558;50.178;8.370;2023-07-29T13:14:22;1.52;;;0.80;;
18857;SDS011;9558;50.178;8.370;2023-07-29T13:17:11;0.95;;;0.93;;
18857;SDS011;9558;50.178;8.370;2023-07-29T13:19:58;1.88;;;1.02;;
18857;SDS011;9558;50.178;8.370;2023-07-29T13:22:45;1.55;;;0.80;;
18857;SDS011;9558;50.178;8.370;2023-07-29T13:25:33;0.80;;;0.73;;
18857;SDS011;9558;50.178;8.370;2023-07-29T13:28:19;0.80;;;0.80;;
18857;SDS011;9558;50.178;8.370;2023-07-29T13:31:06;0.63;;;0.60;;
18857;SDS011;9558;50.178;8.370;2023-07-29T13:33:53;0.60;;;0.60;;
18857;SDS011;9558;50.178;8.370;2023-07-29T13:36:40;0.70;;;0.70;;
18857;SDS011;9558;50.178;8.370;2023-07-29T13:39:27;3.88;;;0.75;;
18857;SDS011;9558;50.178;8.370;2023-07-29T13:42:15;1.52;;;0.75;;
18857;SDS011;9558;50.178;8.370;2023-07-29T13:45:02;0.70;;;0.57;;
18857;SDS011;9558;50.178;8.370;2023-07-29T13:47:50;0.60;;;0.60;;
18857;SDS011;9558;50.178;8.370;2023-07-29T13:50:37;2.10;;;0.60;;
18857;SDS011;9558;50.178;8.370;2023-07-29T13:53:23;0.50;;;0.50;;
18857;SDS011;9558;50.178;8.370;2023-07-29T13:56:11;0.50;;;0.50;;
18857;SDS011;9558;50.178;8.370;2023-07-29T13:58:59;1.00;;;0.50;;
18857;SDS011;9558;50.178;8.370;2023-07-29T14:01:46;0.88;;;0.57;;
18857;SDS011;9558;50.178;8.370;2023-07-29T14:04:33;0.50;;;0.50;;
18857;SDS011;9558;50.178;8.370;2023-07-29T14:07:20;2.90;;;0.63;;
18857;SDS011;9558;50.178;8.370;2023-07-29T14:10:07;0.80;;;0.63;;
18857;SDS011;9558;50.178;8.370;2023-07-29T14:12:54;0.90;;;0.80;;
18857;SDS011;9558;50.178;8.370;2023-07-29T14:15:42;2.60;;;0.75;;
18857;SDS011;9558;50.178;8.370;2023-07-29T14:18:30;0.95;;;0.60;;
18857;SDS011;9558;50.178;8.370;2023-07-29T14:21:17;2.47;;;0.80;;
18857;SDS011;9558;50.178;8.370;2023-07-29T14:24:03;1.02;;;0.70;;
18857;SDS011;9558;50.178;8.370;2023-07-29T14:26:50;0.98;;;0.65;;
18857;SDS011;9558;50.178;8.370;2023-07-29T14:29:37;1.00;;;0.80;;
18857;SDS011;9558;50.178;8.370;2023-07-29T14:32:25;0.82;;;0.50;;
18857;SDS011;9558;50.178;8.370;2023-07-29T14:35:12;0.85;;;0.52;;
18857;SDS011;9558;50.178;8.370;2023-07-29T14:37:59;1.50;;;0.90;;
18857;SDS011;9558;50.178;8.370;2023-07-29T14:40:47;1.13;;;0.73;;
18857;SDS011;9558;50.178;8.370;2023-07-29T14:43:36;1.10;;;0.80;;
18857;SDS011;9558;50.178;8.370;2023-07-29T14:46:22;1.10;;;0.70;;
18857;SDS011;9558;50.178;8.370;2023-07-29T14:49:10;0.80;;;0.60;;
18857;SDS011;9558;50.178;8.370;2023-07-29T14:51:57;0.57;;;0.57;;
18857;SDS011;9558;50.178;8.370;2023-07-29T14:54:44;1.55;;;0.77;;
18857;SDS011;9558;50.178;8.370;2023-07-29T14:57:31;1.60;;;0.65;;
18857;SDS011;9558;50.178;8.370;2023-07-29T15:00:18;1.38;;;0.65;;
18857;SDS011;9558;50.178;8.370;2023-07-29T15:03:05;0.65;;;0.60;;
18857;SDS011;9558;50.178;8.370;2023-07-29T15:05:54;0.63;;;0.55;;
18857;SDS011;9558;50.178;8.370;2023-07-29T15:08:41;0.70;;;0.60;;
18857;SDS011;9558;50.178;8.370;2023-07-29T15:11:27;0.68;;;0.68;;
18857;SDS011;9558;50.178;8.370;2023-07-29T15:14:14;0.73;;;0.60;;
18857;SDS011;9558;50.178;8.370;2023-07-29T15:17:01;0.60;;;0.60;;
18857;SDS011;9558;50.178;8.370;2023-07-29T15:19:48;0.77;;;0.70;;
18857;SDS011;9558;50.178;8.370;2023-07-29T15:22:37;0.70;;;0.60;;
18857;SDS011;9558;50.178;8.370;2023-07-29T15:25:24;1.52;;;0.60;;
18857;SDS011;9558;50.178;8.370;2023-07-29T15:28:11;0.73;;;0.70;;
18857;SDS011;9558;50.178;8.370;2023-07-29T15:30:57;1.42;;;0.77;;
18857;SDS011;9558;50.178;8.370;2023-07-29T15:33:44;1.02;;;0.80;;
18857;SDS011;9558;50.178;8.370;2023-07-29T15:36:31;1.10;;;0.80;;
18857;SDS011;9558;50.178;8.370;2023-07-29T15:39:19;0.80;;;0.52;;
18857;SDS011;9558;50.178;8.370;2023-07-29T15:42:06;1.00;;;0.50;;
18857;SDS011;9558;50.178;8.370;2023-07-29T15:44:53;2.00;;;0.90;;
18857;SDS011;9558;50.178;8.370;2023-07-29T15:47:40;0.70;;;0.65;;
18857;SDS011;9558;50.178;8.370;2023-07-29T15:50:27;2.55;;;0.80;;
18857;SDS011;9558;50.178;8.370;2023-07-29T15:53:14;3.70;;;0.75;;
18857;SDS011;9558;50.178;8.370;2023-07-29T15:56:02;2.75;;;0.73;;
18857;SDS011;9558;50.178;8.370;2023-07-29T15:58:49;0.95;;;0.60;;
18857;SDS011;9558;50.178;8.370;2023-07-29T16:01:36;0.60;;;0.52;;
18857;SDS011;9558;50.178;8.370;2023-07-29T16:04:23;1.98;;;0.73;;
18857;SDS011;9558;50.178;8.370;2023-07-29T16:07:10;0.73;;;0.70;;
18857;SDS011;9558;50.178;8.370;2023-07-29T16:09:56;0.70;;;0.57;;
18857;SDS011;9558;50.178;8.370;2023-07-29T16:12:44;0.63;;;0.63;;
18857;SDS011;9558;50.178;8.370;2023-07-29T16:15:31;0.55;;;0.50;;
18857;SDS011;9558;50.178;8.370;2023-07-29T16:18:18;2.30;;;0.80;;
18857;SDS011;9558;50.178;8.370;2023-07-29T16:21:05;0.43;;;0.43;;
18857;SDS011;9558;50.178;8.370;2023-07-29T16:23:51;2.85;;;0.63;;
18857;SDS011;9558;50.178;8.370;2023-07-29T16:26:38;1.05;;;0.60;;
18857;SDS011;9558;50.178;8.370;2023-07-29T16:29:27;0.88;;;0.65;;
18857;SDS011;9558;50.178;8.370;2023-07-29T16:32:14;0.75;;;0.60;;
18857;SDS011;9558;50.178;8.370;2023-07-29T16:35:01;0.73;;;0.60;;
18857;SDS011;9558;50.178;8.370;2023-07-29T16:37:47;1.45;;;0.70;;
18857;SDS011;9558;50.178;8.370;2023-07-29T16:40:35;1.08;;;0.80;;
18857;SDS011;9558;50.178;8.370;2023-07-29T16:43:22;0.73;;;0.60;;
18857;SDS011;9558;50.178;8.370;2023-07-29T16:46:10;0.63;;;0.52;;
18857;SDS011;9558;50.178;8.370;2023-07-29T16:48:57;1.40;;;0.70;;
18857;SDS011;9558;50.178;8.370;2023-07-29T16:51:43;0.98;;;0.63;;
18857;SDS011;9558;50.178;8.370;2023-07-29T16:54:30;0.75;;;0.60;;
18857;SDS011;9558;50.178;8.370;2023-07-29T16:57:17;1.42;;;0.80;;
18857;SDS011;9558;50.178;8.370;2023-07-29T17:00:04;1.65;;;0.80;;
18857;SDS011;9558;50.178;8.370;2023-07-29T17:02:53;0.60;;;0.50;;
18857;SDS011;9558;50.178;8.370;2023-07-29T17:05:40;1.25;;;0.60;;
18857;SDS011;9558;50.178;8.370;2023-07-29T17:08:27;1.02;;;0.93;;
18857;SDS011;9558;50.178;8.370;2023-07-29T17:11:14;1.00;;;0.80;;